Time;durP1;ratioP1;P1;durP2;ratioP2;P2;SDS_P1;SDS_P2;PMS_P1;PMS_P2;Temp;Humidity;BMP_temperature;BMP_pressure;BME280_temperature;BME280_humidity;BME280_pressure;Samples;Min_cycle;Max_cycle;Signal;HPM_P1;HPM_P2
2021/11/06 13:46:21;;;;;;;17.37;8.97;;;11.40;98.70;;;;;;5103919;27;20432;-80
2021/11/06 13:48:54;;;;;;;17.73;9.83;;;11.40;99.90;;;;;;5088118;28;20051;-80
2021/11/06 13:51:42;;;;;;;14.47;9.87;;;11.30;99.90;;;;;;5105020;28;20517;-80
2021/11/06 13:54:19;;;;;;;18.33;11.33;;;11.30;99.90;;;;;;5107451;28;20135;-80
2021/11/06 13:56:44;;;;;;;15.87;9.77;;;11.40;99.90;;;;;;5087773;28;20054;-83
2021/11/06 13:59:10;;;;;;;22.77;10.47;;;11.40;99.90;;;;;;5106022;28;20047;-80
2021/11/06 14:01:38;;;;;;;18.00;10.20;;;11.40;99.90;;;;;;5106418;28;20132;-79
2021/11/06 14:04:03;;;;;;;18.67;9.63;;;11.50;99.90;;;;;;5081381;28;20043;-78
2021/11/06 14:06:45;;;;;;;19.03;9.77;;;11.50;99.90;;;;;;5085981;28;20047;-76
2021/11/06 14:09:11;;;;;;;15.93;8.97;;;11.50;99.90;;;;;;5086815;28;20050;-79
2021/11/06 14:11:53;;;;;;;17.20;10.53;;;11.50;99.90;;;;;;5086844;28;20048;-80
2021/11/06 14:14:20;;;;;;;16.57;8.57;;;11.50;99.90;;;;;;5084638;28;20499;-76
2021/11/06 14:17:04;;;;;;;14.73;8.67;;;11.50;99.90;;;;;;5103974;28;20067;-76
2021/11/06 14:19:29;;;;;;;14.10;8.47;;;11.50;99.90;;;;;;5075386;28;20442;-83
2021/11/06 14:21:57;;;;;;;17.40;9.53;;;11.60;99.90;;;;;;5088101;28;20041;-84
2021/11/06 14:24:33;;;;;;;14.27;8.60;;;11.60;99.90;;;;;;5068136;28;20345;-83
2021/11/06 14:27:00;;;;;;;13.43;8.37;;;11.60;99.90;;;;;;5067069;28;20056;-86
2021/11/06 14:29:27;;;;;;;14.93;8.70;;;11.60;99.90;;;;;;5086362;28;20039;-82
2021/11/06 14:31:54;;;;;;;13.20;8.50;;;11.60;99.90;;;;;;5079946;28;20585;-83
2021/11/06 14:34:26;;;;;;;16.93;9.23;;;11.60;99.90;;;;;;5104896;28;20128;-83
2021/11/06 14:36:54;;;;;;;;;;;11.60;99.90;;;;;;5103467;28;20436;-80
2021/11/06 14:39:21;;;;;;;17.40;8.33;;;11.60;99.30;;;;;;5083920;28;19927;-77
2021/11/06 14:41:58;;;;;;;20.67;9.03;;;11.60;99.90;;;;;;5104345;28;20647;-76
2021/11/06 14:44:31;;;;;;;15.97;8.90;;;11.60;99.90;;;;;;5105241;28;20052;-74
2021/11/06 14:46:59;;;;;;;16.93;8.20;;;11.60;99.90;;;;;;5100052;28;20044;-79
2021/11/06 14:49:33;;;;;;;15.00;7.70;;;11.70;99.90;;;;;;5104917;28;20123;-80
2021/11/06 14:52:02;;;;;;;15.13;8.60;;;11.70;99.90;;;;;;5105034;28;20116;-78
2021/11/06 14:54:48;;;;;;;15.23;8.10;;;11.70;99.70;;;;;;5086244;28;20048;-79
2021/11/06 14:57:19;;;;;;;15.23;8.27;;;11.60;99.10;;;;;;5059115;28;20392;-79
2021/11/06 14:59:45;;;;;;;10.87;8.10;;;11.60;99.60;;;;;;5073060;28;20048;-77
2021/11/06 15:02:26;;;;;;;12.80;9.33;;;11.60;99.60;;;;;;5071618;28;20509;-73
2021/11/06 15:04:52;;;;;;;16.97;8.67;;;11.70;99.60;;;;;;5073151;28;20048;-74
2021/11/06 15:07:18;;;;;;;14.73;8.63;;;11.70;99.40;;;;;;5072387;28;20408;-72
2021/11/06 15:09:44;;;;;;;12.40;8.83;;;11.70;99.40;;;;;;5072018;28;20058;-74
2021/11/06 15:12:09;;;;;;;13.60;8.90;;;11.70;99.30;;;;;;5072677;28;20048;-74
2021/11/06 15:14:36;;;;;;;13.57;8.80;;;11.70;99.20;;;;;;5091170;28;20048;-71
2021/11/06 15:17:03;;;;;;;16.30;9.53;;;11.70;99.20;;;;;;5072194;28;20048;-71
2021/11/06 15:19:30;;;;;;;15.10;9.03;;;11.60;99.50;;;;;;5073086;28;20053;-70
2021/11/06 15:21:56;;;;;;;13.57;9.20;;;11.70;99.30;;;;;;5072917;28;20602;-71
2021/11/06 15:24:23;;;;;;;21.00;10.07;;;11.60;99.10;;;;;;5071820;28;20040;-71
2021/11/06 15:26:50;;;;;;;16.97;10.97;;;11.60;99.20;;;;;;5072683;28;20582;-73
2021/11/06 15:29:20;;;;;;;15.97;9.30;;;11.60;99.20;;;;;;5071564;28;20039;-74
2021/11/06 15:31:46;;;;;;;15.77;9.33;;;11.60;99.20;;;;;;5073079;28;20063;-76
